Аэропорт: Брест-2. Брест

ICAO: UMBB

METAR:
2020-06-04 05:00:00
UMBB 040500Z 26002MPS 8000 BKN007CB SCT100 10/08 Q1001 NOSIG
METAR:
2020-06-04 02:00:00
TAF UMBB 040200Z 0403/0412 VRB02MPS 6000 BKN015 TEMPO 0403/0410 2100 -SHRA BR BKN007 BKN020CB PROB40 TEMPO 0406/0410 TS BKN020CB